createdAt,value
2022-12-11T00:03:38.701Z,8.16
2022-12-11T00:08:45.786Z,8.16
2022-12-11T00:13:52.883Z,8.15
2022-12-11T00:18:59.851Z,8.14
2022-12-11T00:24:07.450Z,8.15
2022-12-11T00:29:16.124Z,8.14
2022-12-11T00:34:23.332Z,8.14
2022-12-11T00:39:30.421Z,8.13
2022-12-11T00:44:37.731Z,8.13
2022-12-11T00:49:49.548Z,8.13
2022-12-11T00:54:57.280Z,8.14
2022-12-11T01:00:04.590Z,8.11
2022-12-11T01:05:12.194Z,8.13
2022-12-11T01:10:26.129Z,8.11
2022-12-11T01:15:39.983Z,8.12
2022-12-11T01:20:48.525Z,8.11
2022-12-11T01:25:55.463Z,8.11
2022-12-11T01:31:02.656Z,8.09
2022-12-11T01:36:14.522Z,8.10
2022-12-11T01:41:21.490Z,8.09
2022-12-11T01:46:28.684Z,8.08
2022-12-11T01:51:38.410Z,8.08
2022-12-11T01:56:46.446Z,8.08
2022-12-11T02:01:56.871Z,8.07
2022-12-11T02:07:04.621Z,8.06
2022-12-11T02:12:16.440Z,8.04
2022-12-11T02:17:25.912Z,8.04
2022-12-11T02:22:41.852Z,8.06
2022-12-11T02:27:50.860Z,8.05
2022-12-11T02:32:58.741Z,8.03
2022-12-11T02:38:07.550Z,8.02
2022-12-11T02:43:16.371Z,8.02
2022-12-11T02:48:25.230Z,8.03
2022-12-11T02:53:33.990Z,8.03
2022-12-11T02:58:44.450Z,8.01
2022-12-11T03:03:51.339Z,8.00
2022-12-11T03:08:58.001Z,8.00
2022-12-11T03:14:05.113Z,8.01
2022-12-11T03:19:18.829Z,8.00
2022-12-11T03:24:30.400Z,8.00
2022-12-11T03:29:39.983Z,7.99
2022-12-11T03:34:48.529Z,7.99
2022-12-11T03:39:58.940Z,7.98
2022-12-11T03:45:06.950Z,7.99
2022-12-11T03:50:15.719Z,7.98
2022-12-11T03:55:24.073Z,7.97
2022-12-11T04:00:31.366Z,7.96
2022-12-11T04:05:38.251Z,7.96
2022-12-11T04:10:45.427Z,7.95
2022-12-11T04:15:52.480Z,7.95
2022-12-11T04:21:16.839Z,7.95
2022-12-11T04:26:24.021Z,7.94
2022-12-11T04:31:30.988Z,7.94
2022-12-11T04:36:38.250Z,7.93
2022-12-11T04:41:45.479Z,7.92
2022-12-11T04:46:52.998Z,7.93
2022-12-11T04:52:00.210Z,7.93
2022-12-11T04:57:07.552Z,7.92
2022-12-11T05:02:14.671Z,7.92
2022-12-11T05:07:21.853Z,7.92
2022-12-11T05:12:28.460Z,7.91
2022-12-11T05:17:35.550Z,7.90
2022-12-11T05:22:42.441Z,7.89
2022-12-11T05:27:49.181Z,7.90
2022-12-11T05:32:56.061Z,7.91
2022-12-11T05:38:03.219Z,7.91
2022-12-11T05:43:10.412Z,7.90
2022-12-11T05:48:17.320Z,7.89
2022-12-11T05:53:24.590Z,7.89
2022-12-11T05:58:31.942Z,7.88
2022-12-11T06:03:38.640Z,7.88
2022-12-11T06:08:45.462Z,7.88
2022-12-11T06:13:52.669Z,7.87
2022-12-11T06:18:59.762Z,7.87
2022-12-11T06:24:07.371Z,7.87
2022-12-11T06:29:14.261Z,7.87
2022-12-11T06:34:21.071Z,7.86
2022-12-11T06:39:28.013Z,7.86
2022-12-11T06:44:35.090Z,7.85
2022-12-11T06:49:42.380Z,7.85
2022-12-11T06:54:49.279Z,7.84
2022-12-11T06:59:56.041Z,7.84
2022-12-11T07:05:03.150Z,7.84
2022-12-11T07:10:11.649Z,7.83
2022-12-11T07:15:18.580Z,7.84
2022-12-11T07:20:25.831Z,7.83
2022-12-11T07:25:33.253Z,7.84
2022-12-11T07:30:42.210Z,7.83
2022-12-11T07:35:49.573Z,7.82
2022-12-11T07:40:56.490Z,7.82
2022-12-11T07:46:04.354Z,7.81
2022-12-11T07:51:12.341Z,7.82
2022-12-11T07:56:20.179Z,7.81
2022-12-11T08:01:28.415Z,7.80
2022-12-11T08:06:36.341Z,7.81
2022-12-11T08:11:43.261Z,7.82
2022-12-11T08:16:50.733Z,7.80
2022-12-11T08:21:57.919Z,7.80
2022-12-11T08:27:04.670Z,7.79
2022-12-11T08:32:14.051Z,7.79
2022-12-11T08:37:20.950Z,7.79
2022-12-11T08:42:27.939Z,7.80
2022-12-11T08:47:34.990Z,7.79
2022-12-11T08:52:42.030Z,7.79
2022-12-11T08:57:48.703Z,7.79
2022-12-11T09:02:55.840Z,7.79
2022-12-11T09:08:03.023Z,7.78
2022-12-11T09:13:09.830Z,7.78
2022-12-11T09:18:16.859Z,7.79
2022-12-11T09:23:23.821Z,7.78
2022-12-11T09:28:30.941Z,7.77
2022-12-11T09:33:38.220Z,7.78
2022-12-11T09:38:45.220Z,7.78
2022-12-11T09:43:54.821Z,7.78
2022-12-11T09:49:02.159Z,7.80
2022-12-11T09:54:09.351Z,7.79
2022-12-11T09:59:26.311Z,7.79
2022-12-11T10:04:40.279Z,7.80
2022-12-11T10:09:51.051Z,7.79
2022-12-11T10:15:16.962Z,7.80
2022-12-11T10:20:25.391Z,7.82
2022-12-11T10:25:34.051Z,7.81
2022-12-11T10:30:42.376Z,7.81
2022-12-11T10:35:50.290Z,7.80
2022-12-11T10:40:57.833Z,7.79
2022-12-11T10:46:05.637Z,7.79
2022-12-11T10:51:13.332Z,7.80
2022-12-11T10:56:27.042Z,7.79
2022-12-11T11:01:34.704Z,7.80
2022-12-11T11:06:41.769Z,7.80
2022-12-11T11:11:52.421Z,7.79
2022-12-11T11:16:59.831Z,7.78
2022-12-11T11:22:08.050Z,7.79
2022-12-11T11:27:27.140Z,7.78
2022-12-11T11:32:36.002Z,7.79
2022-12-11T11:37:44.011Z,7.78
2022-12-11T11:42:55.079Z,7.78
2022-12-11T11:48:11.478Z,7.77
2022-12-11T11:53:22.190Z,7.76
2022-12-11T11:58:32.470Z,7.75
2022-12-11T12:03:39.421Z,7.73
2022-12-11T12:08:48.320Z,7.73
2022-12-11T12:14:02.002Z,7.71
2022-12-11T12:19:11.710Z,7.71
2022-12-11T12:24:27.439Z,7.71
2022-12-11T12:29:43.340Z,7.70
2022-12-11T12:34:58.990Z,7.70
2022-12-11T12:40:17.151Z,7.70
2022-12-11T12:45:27.872Z,7.69
2022-12-11T12:50:39.018Z,7.68
2022-12-11T12:55:47.279Z,7.67
2022-12-11T13:00:54.347Z,7.67
2022-12-11T13:06:02.940Z,7.66
2022-12-11T13:11:11.521Z,7.65
2022-12-11T13:16:29.484Z,7.65
2022-12-11T13:21:38.610Z,7.64
2022-12-11T13:26:45.750Z,7.63
2022-12-11T13:31:58.115Z,7.63
2022-12-11T13:37:06.253Z,7.63
2022-12-11T13:42:34.010Z,7.62
2022-12-11T13:47:42.750Z,7.64
2022-12-11T13:52:56.462Z,7.62
2022-12-11T13:58:03.502Z,7.61
2022-12-11T14:03:10.491Z,7.59
2022-12-11T14:08:24.158Z,7.58
2022-12-11T14:13:33.789Z,7.59
2022-12-11T14:18:41.371Z,7.58
2022-12-11T14:23:53.190Z,7.56
2022-12-11T14:29:00.390Z,7.57
2022-12-11T14:34:08.950Z,7.55
2022-12-11T14:39:18.281Z,7.55
2022-12-11T14:44:26.566Z,7.54
2022-12-11T14:49:39.451Z,7.54
2022-12-11T14:54:48.590Z,7.53
2022-12-11T14:59:56.771Z,7.52
2022-12-11T15:05:07.492Z,7.52
2022-12-11T15:10:33.313Z,7.53
2022-12-11T15:15:47.140Z,7.51
2022-12-11T15:20:55.921Z,7.51
2022-12-11T15:26:03.862Z,7.51
2022-12-11T15:31:25.836Z,7.50
2022-12-11T15:36:35.109Z,7.51
2022-12-11T15:41:43.900Z,7.51
2022-12-11T15:46:50.890Z,7.48
2022-12-11T15:51:57.973Z,7.48
2022-12-11T15:57:06.122Z,7.48
2022-12-11T16:02:14.614Z,7.49
2022-12-11T16:07:22.910Z,7.48
2022-12-11T16:12:29.901Z,7.48
2022-12-11T16:17:36.781Z,7.48
2022-12-11T16:22:43.621Z,7.48
2022-12-11T16:27:50.581Z,7.47
2022-12-11T16:32:58.001Z,7.46
2022-12-11T16:38:05.141Z,7.47
2022-12-11T16:43:12.111Z,7.48
2022-12-11T16:48:18.793Z,7.48
2022-12-11T16:53:25.851Z,7.47
2022-12-11T16:58:32.832Z,7.45
2022-12-11T17:03:40.455Z,7.46
2022-12-11T17:08:47.670Z,7.45
2022-12-11T17:13:56.860Z,7.45
2022-12-11T17:19:05.681Z,7.44
2022-12-11T17:24:12.650Z,7.43
2022-12-11T17:29:20.361Z,7.42
2022-12-11T17:34:27.211Z,7.41
2022-12-11T17:39:34.320Z,7.40
2022-12-11T17:44:41.253Z,7.39
2022-12-11T17:49:48.270Z,7.38
2022-12-11T17:54:56.543Z,7.38
2022-12-11T18:00:03.611Z,7.37
2022-12-11T18:05:12.178Z,7.37
2022-12-11T18:10:19.453Z,7.37
2022-12-11T18:15:26.499Z,7.37
2022-12-11T18:20:34.441Z,7.35
2022-12-11T18:25:41.250Z,7.35
2022-12-11T18:30:48.571Z,7.34
2022-12-11T18:35:55.925Z,7.34
2022-12-11T18:41:03.824Z,7.32
2022-12-11T18:46:11.844Z,7.32
2022-12-11T18:51:19.610Z,7.32
2022-12-11T18:56:27.090Z,7.32
2022-12-11T19:01:35.037Z,7.31
2022-12-11T19:06:41.910Z,7.31
2022-12-11T19:11:49.281Z,7.30
2022-12-11T19:16:56.340Z,7.30
2022-12-11T19:22:03.400Z,7.30
2022-12-11T19:27:13.721Z,7.29
2022-12-11T19:32:21.458Z,7.28
2022-12-11T19:37:28.761Z,7.28
2022-12-11T19:42:35.670Z,7.27
2022-12-11T19:47:42.950Z,7.26
2022-12-11T19:52:50.711Z,7.26
2022-12-11T19:57:57.889Z,7.25
2022-12-11T20:03:05.280Z,7.25
2022-12-11T20:08:42.963Z,7.26
2022-12-11T20:13:41.100Z,7.27
2022-12-11T20:18:48.204Z,7.25
2022-12-11T20:23:55.190Z,7.24
2022-12-11T20:29:05.391Z,7.23
2022-12-11T20:34:12.861Z,7.23
2022-12-11T20:39:19.720Z,7.21
2022-12-11T20:44:26.762Z,7.22
2022-12-11T20:49:33.890Z,7.21
2022-12-11T20:54:40.720Z,7.20
2022-12-11T20:59:47.451Z,7.20
2022-12-11T21:04:54.421Z,7.19
2022-12-11T21:10:01.329Z,7.19
2022-12-11T21:15:09.477Z,7.18
2022-12-11T21:20:17.299Z,7.18
2022-12-11T21:25:24.295Z,7.17
2022-12-11T21:30:31.300Z,7.17
2022-12-11T21:35:38.430Z,7.16
2022-12-11T21:40:45.722Z,7.16
2022-12-11T21:46:01.012Z,7.15
2022-12-11T21:51:10.610Z,7.16
2022-12-11T21:56:20.140Z,7.15
2022-12-11T22:01:29.390Z,7.15
2022-12-11T22:06:36.332Z,7.14
2022-12-11T22:11:43.657Z,7.14
2022-12-11T22:16:50.713Z,7.13
2022-12-11T22:21:57.582Z,7.11
2022-12-11T22:27:04.385Z,7.11
2022-12-11T22:32:11.138Z,7.11
2022-12-11T22:37:18.021Z,7.09
2022-12-11T22:42:25.060Z,7.10
2022-12-11T22:47:32.019Z,7.10
2022-12-11T22:52:39.030Z,7.08
2022-12-11T22:57:46.170Z,7.07
2022-12-11T23:02:53.641Z,7.07
2022-12-11T23:08:01.251Z,7.07
2022-12-11T23:13:08.388Z,7.07
2022-12-11T23:18:16.030Z,7.06
2022-12-11T23:23:23.051Z,7.05
2022-12-11T23:28:30.303Z,7.04
2022-12-11T23:33:37.912Z,7.05
2022-12-11T23:38:49.541Z,7.04
2022-12-11T23:43:59.853Z,7.04
2022-12-11T23:49:07.074Z,7.03
2022-12-11T23:54:14.254Z,7.02
2022-12-11T23:59:21.062Z,7.02
